Terminal Aerodrome Forecast
Issued by NWS Melbourne, FL

Home | Current Version | Previous Version | Text Only | Print | Product List | Glossary On
Versions: 1 2 3 4 5 6 7 8 9 10 11 12 13 14 15 16 17
000
FTUS42 KMLB 221233 AAA
TAFDAB
TAF AMD
KDAB 221233Z 2213/2312 00000KT P6SM FEW010 SCT050 SCT250
     FM221400 02007KT P6SM SCT010 SCT035
     FM221700 03010KT P6SM SCT035 BKN250
     FM230600 04006KT P6SM VCSH SCT015 BKN030=

USA.gov is the U.S. government's official web portal to all federal, state and local government web resources and services.